Time;durP1;ratioP1;P1;durP2;ratioP2;P2;SDS_P1;SDS_P2;PMS_P1;PMS_P2;Temp;Humidity;BMP_temperature;BMP_pressure;BME280_temperature;BME280_humidity;BME280_pressure;Samples;Min_cycle;Max_cycle;Signal;HPM_P1;HPM_P2
2023/04/15 00:01:02;;;;;;;20.70;18.77;;;4.70;99.90;;;;;;5001903;28;20053;-77
2023/04/15 00:03:29;;;;;;;19.80;18.10;;;4.70;99.90;;;;;;5000546;28;20062;-75
2023/04/15 00:05:57;;;;;;;20.02;18.33;;;4.70;99.90;;;;;;4994974;28;20131;-77
2023/04/15 00:08:24;;;;;;;19.88;18.00;;;4.70;99.90;;;;;;4995035;28;20084;-77
2023/04/15 00:10:51;;;;;;;19.58;18.05;;;4.60;99.90;;;;;;4991760;28;21598;-76
2023/04/15 00:13:17;;;;;;;20.70;18.98;;;4.60;99.90;;;;;;5009568;28;20666;-77
2023/04/15 00:15:44;;;;;;;20.55;18.70;;;4.60;99.90;;;;;;4991998;28;20038;-74
2023/04/15 00:18:10;;;;;;;20.67;18.75;;;4.70;99.90;;;;;;4994222;28;20038;-76
2023/04/15 00:20:37;;;;;;;20.58;18.67;;;4.70;99.90;;;;;;4994158;28;20676;-76
2023/04/15 00:23:04;;;;;;;19.23;17.42;;;4.80;99.90;;;;;;5010809;28;20042;-76
2023/04/15 00:25:31;;;;;;;19.40;17.60;;;4.80;99.90;;;;;;4990339;28;20110;-77
2023/04/15 00:27:57;;;;;;;19.95;17.50;;;4.70;99.90;;;;;;4994905;28;20551;-76
2023/04/15 00:30:25;;;;;;;18.80;17.20;;;4.70;99.90;;;;;;4996813;28;20160;-76
2023/04/15 00:32:52;;;;;;;19.42;17.83;;;4.60;99.90;;;;;;5006561;28;20058;-75
2023/04/15 00:35:20;;;;;;;19.25;17.50;;;4.70;99.90;;;;;;4999976;28;20053;-75
2023/04/15 00:37:48;;;;;;;20.90;18.80;;;4.80;99.90;;;;;;4994983;28;20072;-77
2023/04/15 00:40:17;;;;;;;23.20;18.20;;;4.90;99.90;;;;;;4997730;28;20415;-77
2023/04/15 00:42:44;;;;;;;19.23;17.50;;;4.70;99.90;;;;;;4997104;28;20502;-77
2023/04/15 00:45:11;;;;;;;19.00;17.13;;;4.70;99.90;;;;;;4995723;28;20664;-76
2023/04/15 00:47:41;;;;;;;19.23;17.45;;;4.60;99.90;;;;;;5013450;28;20137;-75
2023/04/15 00:50:09;;;;;;;19.75;17.95;;;4.60;99.90;;;;;;4993086;28;20093;-76
2023/04/15 00:52:36;;;;;;;19.90;18.02;;;4.80;99.90;;;;;;4993421;28;20723;-76
2023/04/15 00:55:04;;;;;;;19.35;17.63;;;4.70;99.90;;;;;;4994036;28;20038;-74
2023/04/15 00:57:31;;;;;;;21.45;19.42;;;4.80;99.90;;;;;;4989753;28;20128;-76
2023/04/15 00:59:59;;;;;;;19.38;17.52;;;4.70;99.90;;;;;;4991451;28;20704;-75
2023/04/15 01:02:26;;;;;;;19.83;17.73;;;4.60;99.90;;;;;;4999652;28;20038;-76
2023/04/15 01:04:53;;;;;;;19.77;17.40;;;4.50;99.90;;;;;;5001261;28;20077;-74
2023/04/15 01:07:20;;;;;;;18.85;16.73;;;4.60;99.90;;;;;;5004496;28;20047;-76
2023/04/15 01:09:46;;;;;;;17.23;15.48;;;4.60;99.90;;;;;;5008187;28;20048;-74
2023/04/15 01:12:15;;;;;;;23.17;16.83;;;4.70;99.90;;;;;;5013946;28;20042;-75
2023/04/15 01:14:42;;;;;;;18.83;17.02;;;4.70;99.90;;;;;;5014610;28;20045;-76
2023/04/15 01:17:09;;;;;;;18.75;16.95;;;4.80;99.90;;;;;;5002570;28;20048;-76
2023/04/15 01:19:37;;;;;;;18.75;16.52;;;4.70;99.90;;;;;;4989089;28;20042;-75
2023/04/15 01:22:04;;;;;;;17.35;15.57;;;4.70;99.90;;;;;;5008014;28;20038;-75
2023/04/15 01:24:32;;;;;;;21.27;16.20;;;4.60;99.90;;;;;;4996603;28;20080;-75
2023/04/15 01:26:58;;;;;;;16.48;14.90;;;4.60;99.90;;;;;;5000090;28;20060;-76
2023/04/15 01:29:26;;;;;;;18.15;15.23;;;4.60;99.90;;;;;;5007502;28;20148;-75
2023/04/15 01:31:54;;;;;;;18.75;14.45;;;4.70;99.90;;;;;;4996769;28;20125;-77
2023/04/15 01:34:22;;;;;;;18.27;14.57;;;4.80;99.90;;;;;;5019814;28;20069;-75
2023/04/15 01:36:52;;;;;;;17.05;15.23;;;4.70;99.90;;;;;;5021126;28;20042;-76
2023/04/15 01:39:20;;;;;;;18.00;14.45;;;4.70;99.90;;;;;;4988268;28;20089;-75
2023/04/15 01:41:48;;;;;;;16.20;14.60;;;4.80;99.90;;;;;;4997694;28;20046;-76
2023/04/15 01:44:15;;;;;;;16.25;14.48;;;4.70;99.90;;;;;;5015634;28;20103;-75
2023/04/15 01:46:42;;;;;;;17.05;15.32;;;4.60;99.90;;;;;;5010028;28;20040;-75
2023/04/15 01:49:09;;;;;;;16.40;14.90;;;4.50;99.90;;;;;;4994796;28;20097;-77
2023/04/15 01:51:35;;;;;;;17.42;15.55;;;4.40;99.90;;;;;;4998746;28;20121;-76
2023/04/15 01:54:02;;;;;;;15.85;14.45;;;4.40;99.90;;;;;;4983677;28;20057;-74
2023/04/15 01:56:29;;;;;;;17.38;15.55;;;4.30;99.90;;;;;;4998163;28;20042;-76
2023/04/15 01:58:56;;;;;;;17.08;15.38;;;4.30;99.90;;;;;;5014889;28;20061;-75
2023/04/15 02:01:22;;;;;;;17.02;15.43;;;4.20;99.90;;;;;;4996135;28;20056;-76
2023/04/15 02:03:49;;;;;;;18.38;15.52;;;4.30;99.90;;;;;;4994906;28;20049;-75
2023/04/15 02:06:17;;;;;;;16.58;15.05;;;4.30;99.90;;;;;;4993754;28;20704;-75
2023/04/15 02:08:44;;;;;;;18.20;16.55;;;4.20;99.90;;;;;;5003996;28;20164;-76
2023/04/15 02:11:10;;;;;;;17.88;16.02;;;4.20;99.90;;;;;;5005303;28;20034;-74
2023/04/15 02:13:37;;;;;;;16.73;15.05;;;4.20;99.90;;;;;;5005646;28;20103;-76
2023/04/15 02:16:15;;;;;;;18.63;16.75;;;4.20;99.90;;;;;;5008635;28;20261;-75
2023/04/15 02:18:44;;;;;;;17.63;15.82;;;4.20;99.90;;;;;;4992275;28;20307;-76
2023/04/15 02:21:11;;;;;;;18.02;16.23;;;4.20;99.90;;;;;;5000505;28;20139;-76
2023/04/15 02:23:37;;;;;;;18.35;16.30;;;4.40;99.90;;;;;;4999497;28;20392;-75
2023/04/15 02:26:04;;;;;;;17.80;16.20;;;4.30;99.90;;;;;;4997781;28;20581;-75
2023/04/15 02:28:30;;;;;;;16.92;15.38;;;4.30;99.90;;;;;;5000334;28;20049;-77
2023/04/15 02:30:58;;;;;;;17.05;15.30;;;4.30;99.90;;;;;;4998684;28;20053;-75
2023/04/15 02:33:25;;;;;;;17.48;15.68;;;4.10;99.90;;;;;;5000405;28;20049;-75
2023/04/15 02:35:52;;;;;;;18.40;16.02;;;4.10;99.90;;;;;;5012323;28;20042;-77
2023/04/15 02:38:18;;;;;;;18.45;16.63;;;4.20;99.90;;;;;;4994188;28;20052;-76
2023/04/15 02:40:48;;;;;;;19.02;16.30;;;4.20;99.90;;;;;;5009680;28;20062;-77
2023/04/15 02:43:16;;;;;;;18.88;16.50;;;4.30;99.90;;;;;;4999326;28;20052;-77
2023/04/15 02:45:44;;;;;;;19.15;16.35;;;4.30;99.90;;;;;;4976507;28;20053;-75
2023/04/15 02:48:11;;;;;;;17.98;16.20;;;4.30;99.90;;;;;;4999280;28;20037;-75
2023/04/15 02:50:39;;;;;;;17.60;15.80;;;4.30;99.90;;;;;;4994689;28;20041;-76
2023/04/15 02:53:07;;;;;;;17.23;15.55;;;4.30;99.90;;;;;;4998628;28;20046;-76
2023/04/15 02:55:34;;;;;;;17.27;15.63;;;4.30;99.90;;;;;;5014812;28;20050;-76
2023/04/15 02:58:01;;;;;;;19.45;17.05;;;4.20;99.90;;;;;;4993027;28;20056;-76
2023/04/15 03:00:27;;;;;;;17.83;15.98;;;4.10;99.90;;;;;;5015569;28;20069;-76
2023/04/15 03:03:04;;;;;;;18.55;16.70;;;4.30;99.90;;;;;;4995577;28;20046;-75
2023/04/15 03:05:31;;;;;;;19.00;17.00;;;4.30;99.90;;;;;;5011965;28;20125;-75
2023/04/15 03:08:00;;;;;;;21.15;16.02;;;4.30;99.90;;;;;;5003857;28;20056;-75
2023/04/15 03:10:27;;;;;;;18.30;16.52;;;4.30;99.90;;;;;;4999264;28;20052;-75
2023/04/15 03:12:54;;;;;;;19.88;17.02;;;4.20;99.90;;;;;;4996316;28;20683;-77
2023/04/15 03:15:22;;;;;;;19.55;17.50;;;4.30;99.90;;;;;;4991456;28;20076;-77
2023/04/15 03:17:52;;;;;;;16.10;14.45;;;4.20;99.90;;;;;;4993990;28;20050;-74
2023/04/15 03:20:19;;;;;;;18.17;16.13;;;4.20;99.90;;;;;;4990061;28;20423;-76
2023/04/15 03:22:47;;;;;;;20.10;16.50;;;4.20;99.90;;;;;;4994234;28;20049;-76
2023/04/15 03:25:13;;;;;;;18.60;16.67;;;4.10;99.90;;;;;;4999536;28;20057;-75
2023/04/15 03:27:40;;;;;;;20.00;17.15;;;4.10;99.90;;;;;;5013897;28;20048;-75
2023/04/15 03:30:08;;;;;;;18.60;15.95;;;4.10;99.90;;;;;;4980104;28;20585;-76
2023/04/15 03:32:36;;;;;;;18.30;16.40;;;4.20;99.90;;;;;;5006491;28;20096;-75
2023/04/15 03:35:05;;;;;;;21.20;17.67;;;4.20;99.90;;;;;;5001607;28;20088;-75
2023/04/15 03:37:32;;;;;;;22.60;17.15;;;4.20;99.90;;;;;;5013251;28;20048;-74
2023/04/15 03:39:58;;;;;;;20.33;15.95;;;4.00;99.90;;;;;;4991832;28;20053;-75
2023/04/15 03:42:25;;;;;;;18.70;16.77;;;4.00;99.90;;;;;;5004080;28;20737;-76
2023/04/15 03:44:52;;;;;;;22.58;17.80;;;3.90;99.90;;;;;;4993743;28;20049;-75
2023/04/15 03:47:19;;;;;;;19.20;17.23;;;4.00;99.90;;;;;;4981170;28;20061;-75
2023/04/15 03:49:46;;;;;;;18.10;16.23;;;3.90;99.90;;;;;;4980193;28;20450;-76
2023/04/15 03:52:13;;;;;;;17.67;15.80;;;3.90;99.90;;;;;;4998001;28;20038;-75
2023/04/15 03:54:39;;;;;;;18.05;15.82;;;4.00;99.90;;;;;;5004023;28;20043;-76
2023/04/15 03:57:06;;;;;;;18.90;15.23;;;3.90;99.90;;;;;;5010608;28;20056;-75
2023/04/15 03:59:33;;;;;;;18.05;15.38;;;3.90;99.90;;;;;;4995363;28;20277;-75
2023/04/15 04:01:59;;;;;;;16.73;14.55;;;3.90;99.90;;;;;;4995123;28;20037;-75
2023/04/15 04:04:26;;;;;;;15.95;14.30;;;3.80;99.90;;;;;;5013544;28;20046;-75
2023/04/15 04:06:53;;;;;;;16.58;13.48;;;3.80;99.90;;;;;;4995201;28;20153;-76
2023/04/15 04:09:19;;;;;;;19.77;15.88;;;3.80;99.90;;;;;;4972861;28;20053;-76
2023/04/15 04:11:46;;;;;;;31.65;19.58;;;3.90;99.90;;;;;;4989260;28;20038;-74
2023/04/15 04:14:13;;;;;;;24.00;17.23;;;4.00;99.90;;;;;;5008638;28;20046;-75
2023/04/15 04:16:39;;;;;;;30.60;19.90;;;4.10;99.90;;;;;;5010265;28;20045;-76
2023/04/15 04:19:06;;;;;;;26.27;17.65;;;4.30;99.90;;;;;;4998888;28;20774;-75
2023/04/15 04:21:33;;;;;;;36.60;21.10;;;4.50;99.90;;;;;;5005855;28;20038;-76
2023/04/15 04:23:59;;;;;;;27.73;18.33;;;4.60;99.90;;;;;;5008492;28;20042;-75
2023/04/15 04:26:26;;;;;;;26.55;15.90;;;4.60;99.90;;;;;;5012927;28;20297;-75
2023/04/15 04:28:53;;;;;;;26.30;16.45;;;4.60;99.90;;;;;;4987731;28;20042;-75
2023/04/15 04:31:20;;;;;;;24.20;17.98;;;4.50;99.90;;;;;;4972570;28;20038;-76
2023/04/15 04:33:46;;;;;;;23.45;17.80;;;4.50;99.90;;;;;;5016934;28;20408;-75
2023/04/15 04:36:13;;;;;;;30.20;19.20;;;4.40;99.90;;;;;;4982771;28;20037;-76
2023/04/15 04:38:40;;;;;;;25.98;18.92;;;4.40;99.90;;;;;;4997321;28;20046;-76
2023/04/15 04:41:06;;;;;;;24.45;17.98;;;4.40;99.90;;;;;;4994937;28;20053;-74
2023/04/15 04:43:33;;;;;;;26.92;19.75;;;4.30;99.90;;;;;;5013190;28;20041;-75
2023/04/15 04:46:00;;;;;;;28.23;18.60;;;4.20;99.90;;;;;;5007009;28;20065;-76
2023/04/15 04:48:26;;;;;;;28.65;19.73;;;4.20;99.90;;;;;;4999981;28;20104;-76
2023/04/15 04:50:53;;;;;;;28.88;20.17;;;4.20;99.90;;;;;;4995559;28;20046;-76
2023/04/15 04:53:20;;;;;;;24.67;20.33;;;4.10;99.90;;;;;;4998192;28;20169;-75
2023/04/15 04:55:46;;;;;;;23.88;21.38;;;4.10;99.90;;;;;;5011844;28;20045;-76
2023/04/15 04:58:13;;;;;;;24.23;19.65;;;4.20;99.90;;;;;;4985891;28;20042;-76
2023/04/15 05:00:40;;;;;;;29.90;20.60;;;4.20;99.90;;;;;;5006180;28;20050;-75
2023/04/15 05:03:07;;;;;;;29.02;21.70;;;4.30;99.90;;;;;;5005094;28;20037;-75
2023/04/15 05:05:35;;;;;;;44.55;27.45;;;4.40;99.90;;;;;;4983823;28;20750;-75
2023/04/15 05:08:02;;;;;;;49.13;27.38;;;4.50;99.90;;;;;;4999750;28;20713;-75
2023/04/15 05:10:29;;;;;;;48.25;27.38;;;4.60;99.90;;;;;;5008965;28;20042;-75
2023/04/15 05:12:56;;;;;;;46.72;27.55;;;4.80;99.90;;;;;;4998845;28;20488;-75
2023/04/15 05:15:23;;;;;;;54.95;29.67;;;5.00;99.90;;;;;;4998207;28;20048;-75
2023/04/15 05:17:50;;;;;;;47.47;27.13;;;5.20;99.90;;;;;;5012500;28;21424;-76
2023/04/15 05:20:17;;;;;;;54.35;27.13;;;5.30;99.90;;;;;;4978381;28;20568;-76
2023/04/15 05:22:44;;;;;;;51.88;28.83;;;5.40;99.90;;;;;;5001953;28;20084;-75
2023/04/15 05:25:11;;;;;;;54.78;29.85;;;5.50;99.90;;;;;;5003363;28;20053;-75
2023/04/15 05:27:37;;;;;;;56.55;30.83;;;5.60;99.90;;;;;;5014270;28;20045;-76
2023/04/15 05:30:06;;;;;;;57.55;30.48;;;5.70;99.90;;;;;;5009804;28;20060;-77
2023/04/15 05:32:32;;;;;;;55.40;30.15;;;5.70;99.90;;;;;;4997926;28;20435;-75
2023/04/15 05:34:59;;;;;;;53.35;29.20;;;5.70;99.90;;;;;;5010686;28;20058;-75
2023/04/15 05:37:26;;;;;;;55.42;29.08;;;5.80;99.90;;;;;;5019295;28;20037;-74
2023/04/15 05:39:53;;;;;;;52.80;28.23;;;5.80;99.90;;;;;;5001665;28;20141;-76
2023/04/15 05:42:19;;;;;;;61.78;31.45;;;5.80;99.90;;;;;;4997812;28;20041;-75
2023/04/15 05:44:46;;;;;;;57.45;31.58;;;5.90;99.90;;;;;;4999480;28;20046;-76
2023/04/15 05:47:13;;;;;;;57.97;30.58;;;5.90;99.90;;;;;;5006298;28;20045;-76
2023/04/15 05:49:39;;;;;;;51.10;28.55;;;6.00;99.90;;;;;;5000755;28;20055;-77
2023/04/15 05:52:06;;;;;;;51.75;29.90;;;6.00;99.90;;;;;;4994425;28;20034;-76
2023/04/15 05:54:33;;;;;;;47.60;28.85;;;6.10;99.90;;;;;;4998371;28;20072;-75
2023/04/15 05:56:59;;;;;;;50.40;28.08;;;6.20;99.90;;;;;;5003238;28;20275;-76
2023/04/15 05:59:27;;;;;;;49.45;29.92;;;6.20;99.90;;;;;;4993078;28;20053;-75
2023/04/15 06:01:54;;;;;;;47.78;28.00;;;6.30;99.90;;;;;;4999341;28;20054;-76
2023/04/15 06:04:21;;;;;;;47.38;29.10;;;6.40;99.90;;;;;;4998507;28;20046;-76
2023/04/15 06:06:48;;;;;;;43.30;27.02;;;6.40;99.90;;;;;;4994339;28;20041;-75
2023/04/15 06:09:15;;;;;;;45.15;28.27;;;6.40;99.90;;;;;;4995036;28;20038;-76
2023/04/15 06:11:42;;;;;;;42.47;28.25;;;6.50;99.90;;;;;;4999328;28;20450;-74
2023/04/15 06:14:09;;;;;;;50.42;30.52;;;6.50;99.90;;;;;;5009955;28;20452;-75
2023/04/15 06:16:36;;;;;;;44.78;27.02;;;6.60;99.90;;;;;;5009916;28;20471;-75
2023/04/15 06:19:03;;;;;;;43.80;26.02;;;6.60;99.90;;;;;;4998917;28;20124;-75
2023/04/15 06:21:30;;;;;;;41.67;26.40;;;6.60;99.90;;;;;;4993300;28;20045;-75
2023/04/15 06:24:00;;;;;;;40.40;27.88;;;6.60;99.90;;;;;;4989054;28;20042;-75
2023/04/15 06:26:27;;;;;;;41.65;26.77;;;6.70;99.90;;;;;;5014276;28;20248;-75
2023/04/15 06:28:53;;;;;;;39.55;27.33;;;6.90;99.90;;;;;;5016771;28;20565;-74
2023/04/15 06:31:20;;;;;;;42.40;26.10;;;6.90;99.90;;;;;;5003078;28;20442;-75
2023/04/15 06:33:47;;;;;;;37.47;23.60;;;6.80;99.90;;;;;;4977694;28;20370;-76
2023/04/15 06:36:14;;;;;;;39.92;27.75;;;6.80;99.90;;;;;;5010301;28;20054;-75
2023/04/15 06:38:41;;;;;;;41.10;27.67;;;6.70;99.90;;;;;;4994256;28;20060;-75
2023/04/15 06:41:07;;;;;;;40.92;26.52;;;6.70;99.90;;;;;;4995998;28;20038;-75
2023/04/15 06:43:34;;;;;;;46.72;28.40;;;6.90;99.90;;;;;;5012283;28;20053;-76
2023/04/15 06:46:01;;;;;;;44.22;28.13;;;6.80;99.90;;;;;;4994423;28;20266;-75
2023/04/15 06:48:27;;;;;;;46.33;27.45;;;6.80;99.90;;;;;;5005024;28;20038;-76
2023/04/15 06:50:55;;;;;;;48.95;29.30;;;6.80;99.90;;;;;;4995091;28;20136;-76
2023/04/15 06:53:21;;;;;;;50.33;29.00;;;6.80;99.90;;;;;;5005471;28;20042;-75
2023/04/15 06:55:48;;;;;;;48.72;29.25;;;6.80;99.90;;;;;;5013525;28;20038;-76
2023/04/15 06:58:15;;;;;;;45.42;28.73;;;6.80;99.90;;;;;;4994185;28;21047;-77
2023/04/15 07:00:41;;;;;;;49.20;29.85;;;6.60;99.90;;;;;;4998092;28;20045;-75
2023/04/15 07:03:09;;;;;;;55.42;30.63;;;6.70;99.90;;;;;;5010236;28;20443;-76
2023/04/15 07:05:37;;;;;;;55.55;29.88;;;6.60;99.90;;;;;;4991724;28;20043;-77
2023/04/15 07:08:04;;;;;;;57.25;30.58;;;6.60;99.90;;;;;;4978364;28;20687;-77
2023/04/15 07:10:35;;;;;;;56.28;30.90;;;6.60;99.90;;;;;;5005653;28;20038;-77
2023/04/15 07:13:01;;;;;;;52.10;30.40;;;6.50;99.90;;;;;;4980724;28;20556;-78
2023/04/15 07:15:28;;;;;;;56.13;30.52;;;6.50;99.90;;;;;;4979997;28;20053;-77
2023/04/15 07:17:55;;;;;;;58.20;31.05;;;6.60;99.90;;;;;;5012965;28;20097;-78
2023/04/15 07:20:22;;;;;;;57.30;31.48;;;6.50;99.90;;;;;;4991108;28;20076;-79
2023/04/15 07:22:49;;;;;;;60.70;31.88;;;6.40;99.90;;;;;;5014152;28;20045;-79
2023/04/15 07:25:16;;;;;;;54.38;30.10;;;6.40;99.90;;;;;;5003433;28;20052;-79
2023/04/15 07:27:43;;;;;;;52.42;28.65;;;6.40;99.90;;;;;;4983341;28;20069;-79
2023/04/15 07:30:11;;;;;;;56.50;29.15;;;6.40;99.90;;;;;;4981878;28;20042;-80
2023/04/15 07:32:38;;;;;;;55.17;31.08;;;6.40;99.90;;;;;;4981261;28;20050;-79
2023/04/15 07:35:05;;;;;;;58.33;30.30;;;6.50;99.90;;;;;;4995644;28;20046;-79
2023/04/15 07:37:32;;;;;;;59.45;31.13;;;6.50;99.90;;;;;;5016499;28;20038;-78
2023/04/15 07:39:59;;;;;;;59.63;30.20;;;6.50;99.90;;;;;;4999315;28;20046;-78
2023/04/15 07:42:25;;;;;;;50.03;28.02;;;6.60;99.90;;;;;;4989529;28;20200;-79
2023/04/15 07:44:52;;;;;;;55.20;29.75;;;6.50;99.90;;;;;;4997667;28;20049;-78
2023/04/15 07:47:19;;;;;;;56.40;28.45;;;6.40;99.90;;;;;;4995374;28;20815;-78
2023/04/15 07:49:46;;;;;;;54.92;27.63;;;6.50;99.90;;;;;;4991493;28;20053;-78
2023/04/15 07:52:12;;;;;;;52.10;28.23;;;6.50;99.90;;;;;;4996070;28;20073;-78
2023/04/15 07:54:39;;;;;;;56.40;27.58;;;6.50;99.90;;;;;;4995259;28;20052;-79
2023/04/15 07:57:06;;;;;;;55.95;28.27;;;6.60;99.90;;;;;;4994744;28;20125;-79
2023/04/15 07:59:33;;;;;;;51.58;27.58;;;6.60;99.90;;;;;;5017378;28;20061;-78
2023/04/15 08:02:00;;;;;;;49.40;26.92;;;6.60;99.90;;;;;;4997064;28;20089;-80
2023/04/15 08:04:27;;;;;;;46.88;26.40;;;6.70;99.90;;;;;;4984205;28;20076;-78
2023/04/15 08:06:54;;;;;;;53.80;27.33;;;6.60;99.90;;;;;;5015895;28;20046;-78
2023/04/15 08:09:20;;;;;;;52.13;28.15;;;6.60;99.90;;;;;;4993882;28;20041;-79
2023/04/15 08:11:49;;;;;;;48.17;27.75;;;6.60;99.90;;;;;;4990576;28;20069;-79
2023/04/15 08:14:16;;;;;;;56.42;27.05;;;6.60;99.90;;;;;;5013855;28;20056;-79
2023/04/15 08:16:43;;;;;;;47.67;25.48;;;6.50;99.90;;;;;;5005316;28;20430;-78
2023/04/15 08:19:09;;;;;;;52.03;26.35;;;6.60;99.90;;;;;;5008031;28;20147;-79
2023/04/15 08:21:36;;;;;;;51.03;26.00;;;6.60;99.90;;;;;;5018782;28;20096;-79
2023/04/15 08:24:03;;;;;;;56.53;25.77;;;6.60;99.90;;;;;;5003276;28;20060;-79
2023/04/15 08:26:30;;;;;;;54.17;27.27;;;6.70;99.90;;;;;;5007560;28;20073;-79
2023/04/15 08:28:56;;;;;;;44.92;22.85;;;6.80;99.90;;;;;;4996102;28;20042;-79
2023/04/15 08:31:26;;;;;;;42.55;23.45;;;6.80;99.90;;;;;;4997895;28;20553;-78
2023/04/15 08:33:53;;;;;;;44.88;24.45;;;6.70;99.90;;;;;;5002630;28;20046;-79
2023/04/15 08:36:20;;;;;;;43.83;23.75;;;6.80;99.90;;;;;;5012027;28;20103;-79
2023/04/15 08:38:47;;;;;;;47.25;25.45;;;6.90;99.90;;;;;;4987871;28;20046;-79
2023/04/15 08:41:24;;;;;;;43.88;24.17;;;6.90;99.90;;;;;;4997923;28;20062;-79
2023/04/15 08:43:57;;;;;;;44.65;21.98;;;6.90;99.90;;;;;;5020186;28;20128;-79
2023/04/15 08:46:24;;;;;;;41.47;21.10;;;6.80;99.90;;;;;;4998081;28;20112;-79
2023/04/15 08:48:56;;;;;;;34.85;19.17;;;6.70;99.90;;;;;;4989937;28;20705;-78
2023/04/15 08:51:23;;;;;;;36.97;19.60;;;6.80;99.90;;;;;;4982174;28;21507;-79
2023/04/15 08:53:51;;;;;;;36.20;18.90;;;6.70;99.90;;;;;;5000824;28;20121;-79
2023/04/15 08:56:19;;;;;;;33.63;18.20;;;6.70;99.90;;;;;;4997076;28;20041;-78
2023/04/15 08:58:46;;;;;;;39.20;19.77;;;6.70;99.90;;;;;;5001627;28;20053;-78
2023/04/15 09:01:13;;;;;;;37.63;21.27;;;6.70;99.90;;;;;;4999264;28;20052;-79
2023/04/15 09:03:40;;;;;;;34.97;19.65;;;6.80;99.90;;;;;;4996791;28;20053;-79
2023/04/15 09:06:07;;;;;;;35.00;19.15;;;6.80;99.90;;;;;;4996405;28;20049;-79
2023/04/15 09:08:34;;;;;;;33.15;17.83;;;6.80;99.90;;;;;;5016652;28;20132;-79
2023/04/15 09:11:02;;;;;;;31.80;18.38;;;6.80;99.90;;;;;;5014388;28;20204;-76
2023/04/15 09:13:30;;;;;;;36.25;20.40;;;6.80;99.90;;;;;;5009074;28;20062;-78
2023/04/15 09:15:59;;;;;;;25.90;15.05;;;6.60;99.90;;;;;;5015892;28;20129;-76
2023/04/15 09:18:28;;;;;;;28.05;16.80;;;6.60;99.90;;;;;;4991340;28;20055;-78
2023/04/15 09:20:55;;;;;;;25.02;15.88;;;6.50;99.90;;;;;;5000275;28;20042;-77
2023/04/15 09:23:22;;;;;;;26.30;11.82;;;6.60;99.90;;;;;;4998343;28;20053;-78
2023/04/15 09:25:49;;;;;;;19.80;11.93;;;6.60;99.90;;;;;;4993885;28;20048;-78
2023/04/15 09:28:23;;;;;;;26.98;15.20;;;6.50;99.90;;;;;;4981745;28;20196;-78
2023/04/15 09:30:56;;;;;;;21.85;12.57;;;6.50;99.90;;;;;;5007149;28;20475;-78
2023/04/15 09:33:25;;;;;;;24.33;12.32;;;6.60;99.90;;;;;;5015956;28;20046;-78
2023/04/15 09:35:57;;;;;;;24.95;13.80;;;6.60;99.90;;;;;;5002496;28;20519;-77
2023/04/15 09:38:24;;;;;;;21.58;11.30;;;6.70;99.90;;;;;;4999310;28;20157;-78
2023/04/15 09:40:51;;;;;;;21.40;11.98;;;6.80;99.90;;;;;;5009306;28;20065;-78
2023/04/15 09:43:18;;;;;;;23.02;12.25;;;6.70;99.90;;;;;;4996954;28;20076;-79
2023/04/15 09:45:53;;;;;;;25.45;11.38;;;6.70;99.90;;;;;;5002991;28;20038;-78
2023/04/15 09:48:22;;;;;;;25.48;14.27;;;6.80;99.90;;;;;;5004716;28;20042;-77
2023/04/15 09:50:49;;;;;;;25.88;12.43;;;6.70;99.90;;;;;;4997112;28;20056;-78
2023/04/15 09:53:26;;;;;;;24.83;13.43;;;6.70;99.90;;;;;;4997992;28;20148;-79
2023/04/15 09:55:59;;;;;;;24.70;12.00;;;6.70;99.90;;;;;;5013300;28;20046;-78
2023/04/15 09:58:28;;;;;;;20.33;11.73;;;6.70;99.90;;;;;;4997449;28;21442;-78
2023/04/15 10:00:56;;;;;;;18.55;11.23;;;6.70;99.90;;;;;;4998609;28;20104;-79
2023/04/15 10:03:30;;;;;;;18.60;10.90;;;6.60;99.90;;;;;;4997183;28;20449;-78
2023/04/15 10:05:59;;;;;;;22.38;12.73;;;6.70;99.90;;;;;;5014519;28;20864;-77
2023/04/15 10:08:28;;;;;;;18.48;9.88;;;6.70;99.90;;;;;;4993443;28;20046;-78
2023/04/15 10:10:56;;;;;;;21.67;11.43;;;6.60;99.90;;;;;;4999906;28;20177;-78
2023/04/15 10:13:25;;;;;;;18.48;9.85;;;6.60;99.90;;;;;;4997648;28;20038;-78
2023/04/15 10:15:57;;;;;;;22.98;10.80;;;6.60;99.90;;;;;;5000947;28;20050;-77
2023/04/15 10:18:26;;;;;;;21.33;11.57;;;6.60;99.90;;;;;;4996616;28;20435;-79
2023/04/15 10:20:54;;;;;;;23.45;11.82;;;6.60;99.90;;;;;;4996939;28;20427;-79
2023/04/15 10:23:23;;;;;;;19.98;11.43;;;6.60;99.90;;;;;;4985910;28;20048;-80
2023/04/15 10:25:53;;;;;;;21.98;12.13;;;6.70;99.90;;;;;;5019523;28;20044;-78
2023/04/15 10:28:21;;;;;;;17.98;10.55;;;6.50;99.90;;;;;;4996677;28;20112;-78
2023/04/15 10:30:48;;;;;;;20.05;11.00;;;6.50;99.90;;;;;;4995800;28;20041;-78
2023/04/15 10:33:20;;;;;;;23.88;11.95;;;6.50;99.90;;;;;;4995046;28;20052;-78
2023/04/15 10:35:49;;;;;;;22.13;11.55;;;6.60;99.90;;;;;;5002306;28;20038;-78
2023/04/15 10:38:41;;;;;;;23.33;12.02;;;6.70;99.90;;;;;;4996879;28;20046;-79
2023/04/15 10:41:16;;;;;;;28.10;12.60;;;6.70;99.90;;;;;;5010638;28;20121;-78
2023/04/15 10:43:53;;;;;;;19.55;10.85;;;6.70;99.90;;;;;;4973970;28;20046;-79
2023/04/15 10:46:38;;;;;;;22.98;11.90;;;6.80;99.90;;;;;;5005073;28;20046;-79
2023/04/15 10:49:13;;;;;;;17.48;10.50;;;6.80;99.90;;;;;;5012864;28;20065;-80
2023/04/15 10:51:51;;;;;;;21.15;11.88;;;6.80;99.90;;;;;;5005583;28;20069;-78
2023/04/15 10:54:24;;;;;;;19.75;11.77;;;6.70;99.90;;;;;;5010766;28;20491;-79
2023/04/15 10:57:01;;;;;;;20.98;10.80;;;6.80;99.90;;;;;;5015121;28;20052;-80
2023/04/15 10:59:58;;;;;;;18.17;10.10;;;6.70;99.90;;;;;;5010029;28;20077;-79
2023/04/15 11:02:45;;;;;;;19.20;10.30;;;6.80;99.90;;;;;;4998066;28;20089;-79
2023/04/15 11:05:14;;;;;;;21.33;11.32;;;6.80;99.90;;;;;;4983816;28;20047;-79
2023/04/15 11:07:49;;;;;;;21.38;12.02;;;6.80;99.90;;;;;;5000647;28;20041;-79
2023/04/15 11:10:16;;;;;;;22.27;11.70;;;6.80;99.90;;;;;;4995481;28;20048;-78
2023/04/15 11:12:56;;;;;;;14.20;10.27;;;6.90;99.90;;;;;;5017278;28;20049;-78
2023/04/15 11:15:41;;;;;;;21.38;12.27;;;6.80;99.90;;;;;;5003295;28;20801;-78
2023/04/15 11:18:15;;;;;;;20.17;10.57;;;6.90;99.90;;;;;;5001584;28;20042;-78
2023/04/15 11:20:46;;;;;;;19.08;11.68;;;6.80;99.90;;;;;;5019822;28;20091;-78
2023/04/15 11:23:15;;;;;;;22.48;12.55;;;6.80;99.90;;;;;;5004562;28;20125;-78
2023/04/15 11:25:43;;;;;;;23.83;12.57;;;6.90;99.90;;;;;;5013343;28;20046;-78
2023/04/15 11:28:11;;;;;;;23.38;13.27;;;7.00;99.90;;;;;;5018687;28;20042;-78
2023/04/15 11:30:39;;;;;;;22.25;13.05;;;7.00;99.90;;;;;;4999560;28;20050;-77
2023/04/15 11:33:08;;;;;;;23.02;13.23;;;7.00;99.90;;;;;;5007249;28;20050;-78
2023/04/15 11:35:35;;;;;;;22.02;12.70;;;7.00;99.90;;;;;;5002911;28;20046;-78
2023/04/15 11:38:11;;;;;;;25.77;13.93;;;7.00;99.90;;;;;;5022566;28;20060;-77
2023/04/15 11:40:39;;;;;;;25.33;14.30;;;7.00;99.90;;;;;;5010430;28;20076;-78
2023/04/15 11:43:08;;;;;;;23.30;12.85;;;7.00;99.90;;;;;;5001420;28;20130;-77
2023/04/15 11:45:36;;;;;;;26.00;12.38;;;7.00;99.90;;;;;;5017420;28;20049;-78
2023/04/15 11:48:10;;;;;;;24.50;13.68;;;7.00;99.90;;;;;;5020944;28;20495;-78
2023/04/15 11:50:39;;;;;;;22.05;11.90;;;7.10;99.90;;;;;;5003207;28;20565;-78
2023/04/15 11:53:09;;;;;;;20.23;11.93;;;7.10;99.90;;;;;;5002089;28;20034;-77
2023/04/15 11:55:47;;;;;;;19.92;12.40;;;7.00;99.90;;;;;;4985947;28;20042;-77
2023/04/15 11:58:17;;;;;;;17.80;11.57;;;7.10;99.90;;;;;;4994804;28;20057;-77
2023/04/15 12:00:48;;;;;;;17.88;11.48;;;7.10;99.90;;;;;;5004220;28;20041;-78
2023/04/15 12:03:26;;;;;;;19.92;12.15;;;7.20;99.90;;;;;;5001199;28;20054;-78
2023/04/15 12:06:06;;;;;;;18.67;11.52;;;7.10;99.90;;;;;;5002282;28;20053;-77
2023/04/15 12:08:52;;;;;;;17.63;11.40;;;7.20;99.90;;;;;;5003700;28;20217;-77
2023/04/15 12:11:28;;;;;;;20.15;12.13;;;7.20;99.90;;;;;;5018101;28;20042;-77
2023/04/15 12:14:10;;;;;;;17.27;11.05;;;7.20;99.90;;;;;;5020111;28;20053;-77
2023/04/15 12:16:42;;;;;;;18.08;10.60;;;7.20;99.90;;;;;;5000765;28;20126;-78
2023/04/15 12:19:27;;;;;;;16.80;10.73;;;7.20;99.90;;;;;;5016724;28;20224;-77
2023/04/15 12:22:05;;;;;;;18.38;10.95;;;7.30;99.90;;;;;;5018630;28;20054;-77
2023/04/15 12:24:34;;;;;;;16.80;10.15;;;7.20;99.90;;;;;;5000428;28;20609;-77
2023/04/15 12:27:03;;;;;;;15.23;9.82;;;7.30;99.90;;;;;;5021548;28;20088;-79
2023/04/15 12:29:31;;;;;;;15.77;11.15;;;7.40;99.90;;;;;;5006853;28;20072;-79
2023/04/15 12:32:09;;;;;;;19.30;11.27;;;7.30;99.90;;;;;;5018172;28;20128;-78
2023/04/15 12:34:48;;;;;;;20.65;12.18;;;7.30;99.90;;;;;;5021155;28;20057;-78
2023/04/15 12:37:15;;;;;;;20.80;12.60;;;7.40;99.90;;;;;;5023180;28;20464;-77
2023/04/15 12:39:44;;;;;;;20.42;12.80;;;7.40;99.90;;;;;;4992445;28;20049;-78
2023/04/15 12:42:11;;;;;;;20.75;12.65;;;7.40;99.90;;;;;;4989925;28;20129;-77
2023/04/15 12:44:38;;;;;;;22.35;14.07;;;7.30;99.90;;;;;;4989149;28;20080;-78